Time;durP1;ratioP1;P1;durP2;ratioP2;P2;SDS_P1;SDS_P2;PMS_P1;PMS_P2;Temp;Humidity;BMP_temperature;BMP_pressure;BME280_temperature;BME280_humidity;BME280_pressure;Samples;Min_cycle;Max_cycle;Signal;HPM_P1;HPM_P2
2022/06/18 00:00:21;;;;;;;1.33;1.00;;;;;;;21.52;60.90;101035.84;5050235;28;20032;-63
2022/06/18 00:02:47;;;;;;;1.33;0.80;;;;;;;21.17;60.88;101028.28;5067981;28;20491;-64
2022/06/18 00:05:16;;;;;;;1.67;1.00;;;;;;;21.18;61.49;101027.06;5051555;28;20104;-64
2022/06/18 00:07:52;;;;;;;0.55;0.52;;;;;;;21.24;60.94;101030.88;5052316;28;20032;-62
2022/06/18 00:10:22;;;;;;;1.00;0.75;;;;;;;21.11;60.10;101013.50;5049373;28;20037;-63
2022/06/18 00:15:37;;;;;;;1.70;0.73;;;;;;;21.34;60.32;101008.00;5043696;28;20090;-62
2022/06/18 00:18:05;;;;;;;1.13;1.00;;;;;;;21.24;60.05;101003.47;5037457;28;20441;-60
2022/06/18 00:20:34;;;;;;;1.23;0.85;;;;;;;21.21;60.89;100995.34;5049677;28;20063;-60
2022/06/18 00:23:01;;;;;;;1.10;0.80;;;;;;;21.41;60.36;100993.38;5050560;28;20037;-64
2022/06/18 00:25:36;;;;;;;1.45;0.88;;;;;;;21.29;59.82;100988.53;5046019;28;20112;-62
2022/06/18 00:28:10;;;;;;;1.20;0.88;;;;;;;21.06;60.08;100986.56;5035255;28;20025;-62
2022/06/18 00:30:35;;;;;;;1.23;0.90;;;;;;;20.82;62.49;100990.47;5039158;28;20048;-63
2022/06/18 00:33:01;;;;;;;1.05;0.80;;;;;;;21.11;61.68;100988.06;5038153;28;20030;-62
2022/06/18 00:35:26;;;;;;;1.50;1.05;;;;;;;21.25;59.82;100996.03;5049061;28;20377;-61
2022/06/18 00:37:55;;;;;;;1.35;0.65;;;;;;;21.12;60.60;100982.16;5044935;28;20033;-62
2022/06/18 00:40:29;;;;;;;1.00;0.80;;;;;;;20.92;60.85;100988.75;5049557;28;20028;-62
2022/06/18 00:42:59;;;;;;;0.98;0.73;;;;;;;20.62;62.83;100984.94;5050090;28;20048;-62
2022/06/18 00:45:27;;;;;;;1.08;0.70;;;;;;;20.76;62.51;100983.16;5040586;28;20364;-62
2022/06/18 00:48:04;;;;;;;0.93;0.82;;;;;;;20.79;61.58;100976.84;5055728;28;20025;-62
2022/06/18 00:50:38;;;;;;;1.42;0.80;;;;;;;20.33;63.64;100969.34;5057040;28;20060;-62
2022/06/18 00:53:18;;;;;;;0.95;0.93;;;;;;;20.72;63.32;100963.25;5044567;28;20094;-61
2022/06/18 00:55:54;;;;;;;0.75;0.75;;;;;;;20.97;62.21;100961.66;5034692;28;20025;-62
2022/06/18 00:58:33;;;;;;;1.23;0.82;;;;;;;20.93;61.83;100958.22;5050165;28;20089;-61
2022/06/18 01:01:00;;;;;;;1.27;0.88;;;;;;;20.97;61.65;100958.94;5049626;28;20509;-62
2022/06/18 01:03:28;;;;;;;0.70;0.70;;;;;;;20.97;62.14;100947.19;5043915;28;20043;-61
2022/06/18 01:06:02;;;;;;;1.67;1.00;;;;;;;20.58;63.21;100948.63;5044100;28;20036;-60
2022/06/18 01:08:30;;;;;;;;;;;;;;;20.39;64.18;100945.78;5045489;28;20025;-62
2022/06/18 01:10:59;;;;;;;0.95;0.75;;;;;;;20.79;62.91;100935.78;5058535;28;20010;-59
2022/06/18 01:13:35;;;;;;;1.00;0.90;;;;;;;20.84;62.27;100927.88;5040703;28;20069;-62
2022/06/18 01:16:04;;;;;;;1.05;0.63;;;;;;;20.80;62.35;100934.56;5046241;28;20132;-62
2022/06/18 01:18:31;;;;;;;0.77;0.65;;;;;;;20.75;62.00;100930.34;5049551;28;20473;-62
2022/06/18 01:21:18;;;;;;;0.63;0.50;;;;;;;20.95;61.77;100931.19;5048468;28;20029;-65
2022/06/18 01:23:52;;;;;;;1.05;0.90;;;;;;;20.97;61.81;100928.00;5039946;28;20064;-63
2022/06/18 01:26:20;;;;;;;1.02;0.80;;;;;;;21.08;61.14;100925.91;5056030;28;20045;-62
2022/06/18 01:28:46;;;;;;;2.05;0.80;;;;;;;21.01;62.10;100929.53;5040481;28;20017;-63
2022/06/18 01:31:13;;;;;;;1.83;0.80;;;;;;;20.82;62.36;100915.78;5059810;28;20021;-60
2022/06/18 01:33:39;;;;;;;0.98;0.88;;;;;;;20.79;62.25;100925.59;5068156;28;20036;-57
2022/06/18 01:36:09;;;;;;;1.45;1.00;;;;;;;20.90;62.56;100909.75;5065659;28;20490;-59
2022/06/18 01:38:43;;;;;;;0.93;0.73;;;;;;;20.72;62.64;100913.97;5051539;28;20132;-61
2022/06/18 01:44:13;;;;;;;1.23;0.98;;;;;;;20.68;63.64;100903.09;5062723;28;20405;-62
2022/06/18 01:46:45;;;;;;;1.10;1.00;;;;;;;20.81;63.48;100895.81;5049956;28;20044;-62
2022/06/18 01:49:18;;;;;;;0.63;0.57;;;;;;;20.86;62.80;100889.88;5068153;28;20060;-62
2022/06/18 01:51:47;;;;;;;1.20;0.85;;;;;;;20.72;63.68;100892.06;5048988;28;20067;-62
2022/06/18 01:54:23;;;;;;;1.17;0.90;;;;;;;20.76;63.59;100882.63;5047986;28;20036;-62
2022/06/18 01:56:54;;;;;;;0.80;0.70;;;;;;;20.73;63.69;100879.94;5050198;28;20033;-63
2022/06/18 01:59:30;;;;;;;1.10;1.00;;;;;;;20.59;63.65;100872.75;5051686;28;20064;-62
2022/06/18 02:02:00;;;;;;;0.80;0.68;;;;;;;20.66;63.55;100869.88;5067369;28;20516;-62
2022/06/18 02:04:27;;;;;;;1.73;0.75;;;;;;;20.45;64.38;100871.03;5047851;28;20440;-63
2022/06/18 02:06:53;;;;;;;1.52;0.95;;;;;;;20.63;64.14;100868.00;5062100;28;20029;-63
2022/06/18 02:09:39;;;;;;;1.00;0.80;;;;;;;20.81;62.41;100864.94;5053091;28;20029;-63
2022/06/18 02:12:09;;;;;;;1.00;0.80;;;;;;;20.76;64.02;100860.72;5060683;28;20029;-61
2022/06/18 02:14:40;;;;;;;1.15;0.85;;;;;;;20.73;64.16;100864.28;5047182;28;20441;-61
2022/06/18 02:17:08;;;;;;;1.15;0.80;;;;;;;20.75;64.71;100850.94;5059394;28;20044;-62
2022/06/18 02:19:38;;;;;;;0.80;0.80;;;;;;;20.71;64.86;100847.53;5049437;28;20059;-62
2022/06/18 02:22:06;;;;;;;2.10;1.20;;;;;;;20.59;65.00;100850.84;5042864;28;20117;-63
2022/06/18 02:24:32;;;;;;;1.67;1.02;;;;;;;20.65;64.61;100852.69;5063978;28;20033;-58
2022/06/18 02:26:58;;;;;;;0.90;0.75;;;;;;;20.61;64.83;100849.22;5052963;28;20467;-62
2022/06/18 02:29:29;;;;;;;1.02;0.93;;;;;;;20.49;66.19;100840.88;5047675;28;20485;-63
2022/06/18 02:31:55;;;;;;;1.05;0.90;;;;;;;20.52;65.82;100842.75;5046620;28;20145;-59
2022/06/18 02:34:26;;;;;;;1.20;0.80;;;;;;;20.58;64.93;100838.34;5039405;28;20040;-58
2022/06/18 02:36:54;;;;;;;1.05;0.93;;;;;;;20.46;65.14;100839.72;5051329;28;20069;-59
2022/06/18 02:39:20;;;;;;;1.42;0.90;;;;;;;20.42;66.19;100838.25;5051246;28;20033;-60
2022/06/18 02:41:47;;;;;;;1.05;0.77;;;;;;;20.48;66.17;100836.56;5046287;28;20591;-62
2022/06/18 02:44:14;;;;;;;1.00;0.85;;;;;;;20.48;66.83;100829.13;5050255;28;20049;-61
2022/06/18 02:46:41;;;;;;;1.35;1.13;;;;;;;20.50;66.55;100828.72;5037236;28;20021;-62
2022/06/18 02:49:09;;;;;;;0.98;0.88;;;;;;;20.32;66.44;100822.78;5048876;28;20029;-63
2022/06/18 02:51:36;;;;;;;1.35;1.00;;;;;;;20.38;65.96;100829.34;5051036;28;20120;-60
2022/06/18 02:54:04;;;;;;;2.08;0.85;;;;;;;20.40;66.52;100826.97;5047718;28;20025;-63
2022/06/18 02:56:30;;;;;;;2.13;1.00;;;;;;;20.24;68.10;100819.41;5060282;28;20033;-63
2022/06/18 02:58:56;;;;;;;1.00;0.85;;;;;;;20.27;67.90;100821.28;5051776;28;20524;-63
2022/06/18 03:01:25;;;;;;;1.05;0.85;;;;;;;20.28;68.46;100819.34;5048073;28;20218;-63
2022/06/18 03:03:56;;;;;;;1.23;0.98;;;;;;;20.30;68.39;100823.22;5037426;28;20036;-63
2022/06/18 03:06:24;;;;;;;2.40;0.90;;;;;;;20.25;68.97;100818.19;5063965;28;20044;-63
2022/06/18 03:08:53;;;;;;;2.53;0.83;;;;;;;20.27;68.50;100809.56;5051875;28;20017;-63
2022/06/18 03:14:09;;;;;;;1.10;0.80;;;;;;;20.21;68.22;100805.78;5057206;28;20025;-63
2022/06/18 03:16:35;;;;;;;1.33;0.80;;;;;;;20.30;67.31;100815.00;5061108;28;20033;-61
2022/06/18 03:19:04;;;;;;;1.00;0.90;;;;;;;20.29;68.18;100802.50;5046112;28;20485;-62
2022/06/18 03:21:52;;;;;;;1.23;1.13;;;;;;;20.30;67.86;100806.81;5065228;28;20068;-59
2022/06/18 03:24:18;;;;;;;0.98;0.80;;;;;;;20.34;68.29;100812.22;5049722;28;20112;-62
2022/06/18 03:26:45;;;;;;;1.00;0.90;;;;;;;20.28;68.64;100808.41;5037158;28;20158;-62
2022/06/18 03:29:12;;;;;;;0.57;0.57;;;;;;;20.22;68.34;100810.06;5043418;28;20028;-61
2022/06/18 03:31:37;;;;;;;1.30;1.00;;;;;;;20.20;69.06;100806.97;5051564;28;20425;-62
2022/06/18 03:34:04;;;;;;;0.90;0.82;;;;;;;20.15;69.35;100799.22;5048822;28;20047;-62
2022/06/18 03:36:31;;;;;;;1.10;1.00;;;;;;;19.96;68.87;100788.94;5067344;28;20390;-59
2022/06/18 03:38:57;;;;;;;1.35;0.90;;;;;;;20.12;69.67;100789.88;5049576;28;20025;-59
2022/06/18 03:41:24;;;;;;;0.88;0.88;;;;;;;20.16;68.84;100789.81;5063146;28;20509;-62
2022/06/18 03:43:52;;;;;;;1.52;0.90;;;;;;;20.23;69.14;100795.19;5048163;28;20071;-62
2022/06/18 03:46:20;;;;;;;1.30;1.17;;;;;;;20.32;68.78;100792.69;5049722;28;20033;-61
2022/06/18 03:48:57;;;;;;;1.00;0.80;;;;;;;20.29;69.09;100791.56;5049720;28;20115;-62
2022/06/18 03:51:27;;;;;;;3.30;0.90;;;;;;;20.30;69.13;100793.13;5049055;28;20029;-61
2022/06/18 03:53:55;;;;;;;1.27;0.85;;;;;;;20.31;69.58;100796.59;5048400;28;20039;-60
2022/06/18 03:56:24;;;;;;;1.15;0.88;;;;;;;20.37;69.87;100790.25;5041109;28;20510;-62
2022/06/18 03:58:51;;;;;;;0.88;0.80;;;;;;;20.45;69.20;100802.63;5062882;28;20055;-65
2022/06/18 04:01:21;;;;;;;1.35;0.98;;;;;;;20.46;70.35;100808.88;5061933;28;20044;-62
2022/06/18 04:03:47;;;;;;;1.58;0.90;;;;;;;20.47;70.17;100802.19;5064423;28;20581;-62
2022/06/18 04:06:27;;;;;;;0.50;0.50;;;;;;;20.46;70.75;100811.59;5046763;28;20055;-61
2022/06/18 04:08:53;;;;;;;1.20;0.80;;;;;;;20.45;71.92;100808.09;5048367;28;20029;-63
2022/06/18 04:11:21;;;;;;;1.42;0.93;;;;;;;20.54;70.49;100810.25;5066074;28;20032;-61
2022/06/18 04:13:47;;;;;;;1.48;0.73;;;;;;;20.64;69.94;100820.25;5060689;28;20040;-63
2022/06/18 04:16:31;;;;;;;2.88;0.65;;;;;;;20.62;71.26;100819.91;5037730;28;20033;-62
2022/06/18 04:19:01;;;;;;;2.20;1.02;;;;;;;20.59;72.53;100816.06;5059511;28;20067;-62
2022/06/18 04:21:27;;;;;;;0.88;0.68;;;;;;;20.62;72.13;100811.69;5050321;28;20029;-60
2022/06/18 04:23:52;;;;;;;0.85;0.70;;;;;;;20.64;72.03;100821.03;5048580;28;20501;-60
2022/06/18 04:26:18;;;;;;;1.17;1.00;;;;;;;20.52;69.94;100823.59;5049108;28;20489;-62
2022/06/18 04:28:47;;;;;;;0.95;0.63;;;;;;;20.58;71.61;100813.72;5049351;28;20481;-63
2022/06/18 04:31:15;;;;;;;1.25;0.93;;;;;;;20.67;72.83;100811.22;5063170;28;20153;-63
2022/06/18 04:33:43;;;;;;;1.35;0.90;;;;;;;20.52;71.21;100807.97;5061959;28;20033;-63
2022/06/18 04:36:44;;;;;;;2.88;0.90;;;;;;;20.63;71.99;100803.06;5027530;28;20417;-63
2022/06/18 04:39:27;;;;;;;1.17;0.90;;;;;;;20.85;71.82;100808.16;5061476;28;20045;-62
2022/06/18 04:41:55;;;;;;;1.38;0.93;;;;;;;20.87;71.26;100811.22;5049310;28;20037;-62
2022/06/18 04:44:25;;;;;;;1.38;0.82;;;;;;;20.96;71.93;100805.97;5062254;28;20039;-62
2022/06/18 04:46:55;;;;;;;0.57;0.57;;;;;;;21.05;71.82;100811.69;5048291;28;20025;-62
2022/06/18 04:49:22;;;;;;;0.85;0.60;;;;;;;21.08;71.77;100808.13;5048232;28;20279;-62
2022/06/18 04:51:48;;;;;;;1.23;0.80;;;;;;;21.11;72.06;100807.25;5049155;28;20033;-62
2022/06/18 04:54:20;;;;;;;1.92;0.75;;;;;;;21.14;70.65;100798.97;5047663;28;20106;-63
2022/06/18 04:56:47;;;;;;;0.80;0.70;;;;;;;21.25;69.20;100796.75;5048939;28;20033;-62
2022/06/18 04:59:16;;;;;;;0.95;0.82;;;;;;;21.35;69.50;100811.47;5043118;28;20041;-61
2022/06/18 05:01:44;;;;;;;1.10;0.75;;;;;;;21.48;67.88;100804.91;5058702;28;20033;-59
2022/06/18 05:04:28;;;;;;;2.40;0.88;;;;;;;21.60;67.18;100810.91;5046002;28;20063;-61
2022/06/18 05:07:20;;;;;;;0.60;0.60;;;;;;;21.72;66.55;100813.00;5045723;28;20375;-62
2022/06/18 05:10:06;;;;;;;0.90;0.68;;;;;;;21.90;64.97;100816.13;5049500;28;20045;-60
2022/06/18 05:12:54;;;;;;;1.75;0.80;;;;;;;22.02;64.14;100810.72;5048064;28;20297;-62
2022/06/18 05:15:36;;;;;;;1.08;0.68;;;;;;;22.46;63.53;100817.47;5052671;28;20033;-62
2022/06/18 05:18:02;;;;;;;1.27;0.82;;;;;;;23.01;62.54;100828.19;5053691;28;20118;-61
2022/06/18 05:20:27;;;;;;;1.27;0.80;;;;;;;23.63;58.78;100821.28;5068807;28;20452;-62
2022/06/18 05:22:57;;;;;;;0.88;0.77;;;;;;;24.20;56.90;100823.00;5052483;28;20613;-59
2022/06/18 05:25:22;;;;;;;0.98;0.75;;;;;;;24.71;56.68;100818.91;5044302;28;20100;-62
2022/06/18 05:27:48;;;;;;;1.20;0.80;;;;;;;24.85;56.39;100817.66;5053805;28;20531;-64
2022/06/18 05:30:22;;;;;;;0.50;0.50;;;;;;;25.38;54.10;100824.72;5052493;28;20033;-62
2022/06/18 05:32:48;;;;;;;0.75;0.70;;;;;;;25.80;52.86;100814.09;5067819;28;20029;-63
2022/06/18 05:35:15;;;;;;;1.52;0.77;;;;;;;26.00;52.20;100814.44;5068950;28;20382;-63
2022/06/18 05:37:41;;;;;;;0.98;0.80;;;;;;;26.09;51.86;100819.25;5068717;28;20056;-63
2022/06/18 05:40:10;;;;;;;1.45;0.63;;;;;;;26.19;52.40;100810.50;5042197;28;20411;-63
2022/06/18 05:42:36;;;;;;;1.08;0.80;;;;;;;26.47;52.12;100803.81;5064279;28;20370;-64
2022/06/18 05:45:02;;;;;;;1.05;0.80;;;;;;;26.65;51.47;100803.03;5051244;28;20507;-64
2022/06/18 05:47:32;;;;;;;1.17;0.95;;;;;;;26.77;51.84;100786.31;5053337;28;20037;-64
2022/06/18 05:49:59;;;;;;;2.73;0.70;;;;;;;26.82;51.81;100793.22;5052454;28;20033;-64
2022/06/18 05:52:29;;;;;;;0.88;0.63;;;;;;;26.83;52.90;100782.94;5045853;28;20033;-63
2022/06/18 05:54:58;;;;;;;1.08;0.90;;;;;;;27.03;51.83;100783.97;5038853;28;20059;-64
2022/06/18 05:57:55;;;;;;;1.00;0.60;;;;;;;26.92;52.15;100782.91;5045223;28;20052;-63
2022/06/18 06:00:28;;;;;;;0.60;0.60;;;;;;;27.06;51.97;100774.72;5066196;28;20025;-65
2022/06/18 06:02:56;;;;;;;2.95;0.75;;;;;;;27.32;51.32;100770.41;5059477;28;20116;-64
2022/06/18 06:05:25;;;;;;;0.75;0.60;;;;;;;27.41;52.09;100780.69;5051263;28;20108;-64
2022/06/18 06:07:51;;;;;;;0.90;0.57;;;;;;;27.42;50.96;100769.13;5050798;28;20033;-63
2022/06/18 06:13:13;;;;;;;0.50;0.50;;;;;;;27.65;50.57;100792.56;5067569;28;20044;-63
2022/06/18 06:15:39;;;;;;;1.08;0.98;;;;;;;27.68;50.65;100786.06;5051432;28;20025;-62
2022/06/18 06:18:06;;;;;;;0.68;0.63;;;;;;;27.72;51.17;100789.44;5065588;28;20332;-63
2022/06/18 06:20:35;;;;;;;1.25;0.70;;;;;;;27.71;50.75;100795.44;5050796;28;20489;-61
2022/06/18 06:23:01;;;;;;;0.98;0.80;;;;;;;27.64;51.70;100786.25;5046819;28;20078;-64
2022/06/18 06:25:27;;;;;;;1.17;0.80;;;;;;;27.61;51.37;100781.66;5052596;28;20486;-61
2022/06/18 06:27:53;;;;;;;0.60;0.60;;;;;;;27.67;52.16;100790.09;5045734;28;20389;-62
2022/06/18 06:30:18;;;;;;;0.85;0.60;;;;;;;27.66;52.55;100783.03;5045648;28;20550;-63
2022/06/18 06:32:45;;;;;;;1.13;0.80;;;;;;;27.71;51.91;100776.84;5052359;28;20063;-63
2022/06/18 06:35:11;;;;;;;0.55;0.40;;;;;;;27.64;52.89;100777.19;5050774;28;20040;-63
2022/06/18 06:37:37;;;;;;;2.92;0.88;;;;;;;27.86;52.19;100780.44;5051975;28;20055;-63
2022/06/18 06:40:03;;;;;;;0.75;0.70;;;;;;;27.89;51.94;100781.50;5044870;28;20033;-64
2022/06/18 06:42:29;;;;;;;1.13;0.73;;;;;;;27.89;53.18;100790.59;5047140;28;20057;-63
2022/06/18 06:44:55;;;;;;;0.80;0.80;;;;;;;27.92;52.95;100792.41;5051297;28;20052;-64
2022/06/18 06:47:21;;;;;;;1.08;0.80;;;;;;;28.03;51.85;100784.38;5052604;28;20082;-64
2022/06/18 06:49:47;;;;;;;0.98;0.82;;;;;;;28.03;53.13;100780.84;5045719;28;20037;-64
2022/06/18 06:52:13;;;;;;;2.03;0.98;;;;;;;28.12;52.83;100786.31;5038810;28;20025;-64
2022/06/18 06:54:39;;;;;;;0.77;0.60;;;;;;;28.36;51.96;100790.59;5049120;28;20025;-64
2022/06/18 06:57:22;;;;;;;1.08;0.85;;;;;;;28.30;52.71;100786.94;5048896;28;20030;-64
2022/06/18 06:59:49;;;;;;;2.60;0.85;;;;;;;28.38;52.43;100784.59;5050547;28;20508;-64
2022/06/18 07:02:20;;;;;;;1.23;0.93;;;;;;;28.43;51.36;100778.41;5042629;28;20037;-62
2022/06/18 07:04:46;;;;;;;1.20;0.90;;;;;;;28.49;50.78;100780.03;5047457;28;20078;-63
2022/06/18 07:07:13;;;;;;;1.73;0.82;;;;;;;28.59;51.61;100780.72;5041919;28;20033;-63
2022/06/18 07:09:39;;;;;;;0.63;0.63;;;;;;;28.63;50.86;100788.91;5043163;28;20369;-62
2022/06/18 07:12:06;;;;;;;1.48;0.98;;;;;;;28.83;50.03;100777.91;5050904;28;20115;-64
2022/06/18 07:14:32;;;;;;;1.17;0.80;;;;;;;28.82;50.06;100790.25;5037924;28;20389;-63
2022/06/18 07:16:58;;;;;;;1.83;0.93;;;;;;;28.91;49.16;100784.59;5043646;28;20044;-63
2022/06/18 07:19:25;;;;;;;1.52;1.02;;;;;;;28.90;49.72;100788.63;5057987;28;20120;-66
2022/06/18 07:21:51;;;;;;;1.45;0.90;;;;;;;28.84;49.62;100785.75;5045986;28;20040;-63
2022/06/18 07:24:17;;;;;;;1.23;0.70;;;;;;;28.92;49.70;100791.72;5044912;28;20021;-65
2022/06/18 07:26:43;;;;;;;1.40;0.85;;;;;;;28.97;49.63;100793.81;5041210;28;20470;-64
2022/06/18 07:29:09;;;;;;;1.50;1.05;;;;;;;29.02;49.33;100804.22;5058575;28;20078;-63
2022/06/18 07:31:35;;;;;;;0.88;0.80;;;;;;;29.15;49.20;100804.75;5050525;28;20512;-64
2022/06/18 07:34:03;;;;;;;0.93;0.82;;;;;;;29.13;49.61;100801.69;5049650;28;20025;-64
2022/06/18 07:36:32;;;;;;;1.17;1.08;;;;;;;29.16;48.77;100803.50;5045853;28;20033;-62
2022/06/18 07:38:59;;;;;;;1.33;1.00;;;;;;;29.24;49.67;100808.19;5044627;28;20112;-63
2022/06/18 07:41:33;;;;;;;1.85;1.20;;;;;;;29.30;50.86;100811.06;5038532;28;20032;-64
2022/06/18 07:44:00;;;;;;;1.20;1.10;;;;;;;29.51;49.21;100814.66;5035763;28;20033;-64
2022/06/18 07:46:26;;;;;;;2.08;1.40;;;;;;;29.64;48.19;100815.88;5048044;28;20064;-63
2022/06/18 07:48:52;;;;;;;1.13;1.00;;;;;;;29.68;47.56;100813.66;5047300;28;20484;-65
2022/06/18 07:51:17;;;;;;;1.45;1.20;;;;;;;29.78;47.64;100806.00;5049939;28;20535;-64
2022/06/18 07:53:43;;;;;;;2.33;1.40;;;;;;;29.72;47.07;100813.50;5046394;28;20033;-60
2022/06/18 07:56:13;;;;;;;1.25;0.93;;;;;;;29.71;47.89;100809.97;5046676;28;20030;-62
2022/06/18 07:58:39;;;;;;;1.45;1.10;;;;;;;29.78;48.52;100804.00;5036179;28;20040;-64
2022/06/18 08:01:05;;;;;;;1.63;1.08;;;;;;;29.80;48.05;100798.72;5036145;28;20033;-62
2022/06/18 08:03:31;;;;;;;1.23;1.10;;;;;;;30.00;48.35;100798.00;5058810;28;20041;-63
2022/06/18 08:05:56;;;;;;;0.85;0.80;;;;;;;29.95;50.00;100793.13;5038126;28;20079;-64
2022/06/18 08:08:22;;;;;;;1.63;1.33;;;;;;;30.08;49.94;100796.34;5032677;28;20463;-63
2022/06/18 08:10:51;;;;;;;3.00;1.65;;;;;;;30.36;47.53;100799.47;5032930;28;20076;-63
2022/06/18 08:13:17;;;;;;;2.53;1.30;;;;;;;30.46;47.21;100803.66;5032148;28;20031;-66
2022/06/18 08:15:43;;;;;;;3.80;1.38;;;;;;;30.66;47.86;100804.38;5038280;28;20547;-64
2022/06/18 08:18:09;;;;;;;1.73;1.40;;;;;;;30.63;47.02;100810.16;5044346;28;20129;-64
2022/06/18 08:20:35;;;;;;;1.45;1.17;;;;;;;30.64;47.63;100808.94;5038759;28;20047;-65
2022/06/18 08:23:02;;;;;;;1.77;1.45;;;;;;;30.70;48.21;100806.97;5040383;28;20037;-63
2022/06/18 08:25:31;;;;;;;1.50;1.10;;;;;;;30.82;48.40;100808.59;5045091;28;20047;-64
2022/06/18 08:27:59;;;;;;;2.15;1.35;;;;;;;30.94;47.13;100804.69;5031635;28;20087;-65
2022/06/18 08:30:25;;;;;;;2.72;1.20;;;;;;;31.03;47.65;100805.28;5028712;28;20494;-63
2022/06/18 08:35:27;;;;;;;2.83;1.20;;;;;;;31.15;46.83;100803.38;4998261;28;20107;-63
2022/06/18 08:37:54;;;;;;;1.23;1.02;;;;;;;31.27;47.17;100805.00;5006739;28;20437;-63
2022/06/18 08:40:37;;;;;;;1.90;1.35;;;;;;;31.29;47.03;100807.28;5003175;28;20124;-63
2022/06/18 08:43:33;;;;;;;1.65;1.13;;;;;;;31.45;46.23;100801.91;5004580;28;20052;-63
2022/06/18 08:46:16;;;;;;;1.30;0.88;;;;;;;31.59;46.16;100798.16;5003176;28;20521;-64
2022/06/18 08:48:48;;;;;;;2.28;1.90;;;;;;;31.68;46.10;100798.00;5006780;28;20128;-62
2022/06/18 08:51:45;;;;;;;2.03;1.10;;;;;;;31.74;45.90;100798.81;5001835;28;20041;-62
2022/06/18 08:54:10;;;;;;;2.28;1.30;;;;;;;31.71;45.79;100799.00;5003040;28;20106;-61
2022/06/18 08:56:45;;;;;;;0.93;0.85;;;;;;;31.81;46.52;100803.13;5003494;28;20038;-63
2022/06/18 08:59:29;;;;;;;2.38;1.38;;;;;;;32.01;45.64;100807.84;4999775;28;20050;-63
2022/06/18 09:02:01;;;;;;;3.63;1.98;;;;;;;31.98;46.09;100824.28;5003548;28;20049;-63
2022/06/18 09:04:51;;;;;;;2.53;1.27;;;;;;;32.18;45.14;100819.81;4997017;28;20038;-63
2022/06/18 09:07:30;;;;;;;3.05;1.20;;;;;;;32.28;45.24;100815.56;5001317;28;20433;-61
2022/06/18 09:10:31;;;;;;;1.38;1.15;;;;;;;32.24;45.40;100815.03;5011023;28;20117;-64
2022/06/18 09:13:15;;;;;;;3.63;1.55;;;;;;;32.42;45.03;100817.41;5011308;28;20120;-64
2022/06/18 09:15:46;;;;;;;2.05;1.27;;;;;;;32.44;46.03;100826.06;5012908;28;20113;-62
2022/06/18 09:18:39;;;;;;;2.45;1.38;;;;;;;32.60;45.10;100828.13;5000648;28;20032;-63
2022/06/18 09:21:11;;;;;;;1.83;1.15;;;;;;;32.69;45.48;100836.31;5006452;28;20344;-65
2022/06/18 09:23:41;;;;;;;1.65;1.30;;;;;;;32.70;45.34;100833.00;5009994;28;20048;-63
2022/06/18 09:26:18;;;;;;;1.03;0.93;;;;;;;32.79;44.84;100832.00;5009395;28;20022;-64
2022/06/18 09:28:57;;;;;;;5.03;1.77;;;;;;;32.87;43.67;100841.41;5010377;28;20034;-64
2022/06/18 09:31:31;;;;;;;1.23;1.05;;;;;;;32.81;43.77;100846.22;5006949;28;20128;-63
2022/06/18 09:34:04;;;;;;;1.60;1.27;;;;;;;32.90;44.08;100834.81;5004428;28;20347;-62
2022/06/18 09:36:36;;;;;;;2.78;1.20;;;;;;;32.79;44.80;100841.13;5010229;28;20486;-63
2022/06/18 09:39:08;;;;;;;1.15;1.05;;;;;;;32.97;43.51;100842.72;5004321;28;20113;-63
2022/06/18 09:41:43;;;;;;;1.13;1.02;;;;;;;32.94;45.90;100840.94;5007320;28;20117;-62
2022/06/18 09:44:22;;;;;;;1.10;1.00;;;;;;;32.93;45.73;100839.38;4999009;28;20320;-64
2022/06/18 09:47:00;;;;;;;2.38;1.80;;;;;;;33.19;43.83;100837.19;5009108;28;20049;-63
2022/06/18 09:49:29;;;;;;;1.80;1.15;;;;;;;33.10;45.01;100826.22;5009210;28;20400;-63
2022/06/18 09:52:27;;;;;;;1.67;1.52;;;;;;;33.34;44.07;100840.47;5012688;28;20211;-63
2022/06/18 09:55:01;;;;;;;2.40;1.50;;;;;;;33.36;44.80;100837.94;5009557;28;20038;-63
2022/06/18 09:57:31;;;;;;;1.35;1.20;;;;;;;33.55;44.30;100838.97;5004645;28;20081;-63
2022/06/18 10:00:11;;;;;;;2.80;1.48;;;;;;;33.61;43.72;100848.13;5011959;28;20030;-63
2022/06/18 10:03:07;;;;;;;1.92;1.40;;;;;;;33.60;43.53;100851.44;4995969;28;20052;-63
2022/06/18 10:08:27;;;;;;;3.00;0.88;;;;;;;33.45;45.56;100851.66;5005077;28;20038;-63
2022/06/18 10:11:07;;;;;;;2.30;0.98;;;;;;;33.44;45.28;100849.38;5013085;28;20017;-63
2022/06/18 10:13:39;;;;;;;1.80;1.02;;;;;;;33.60;45.31;100862.63;5006022;28;20042;-61
2022/06/18 10:16:12;;;;;;;1.23;1.02;;;;;;;33.70;45.13;100859.03;5011503;28;20040;-62
2022/06/18 10:18:51;;;;;;;1.40;1.15;;;;;;;33.85;44.35;100853.19;5012933;28;20548;-63
2022/06/18 10:21:28;;;;;;;1.17;0.95;;;;;;;33.99;43.75;100854.19;5010082;28;20030;-63
2022/06/18 10:24:09;;;;;;;2.72;1.02;;;;;;;33.95;45.03;100853.66;5001375;28;20057;-63
2022/06/18 10:26:43;;;;;;;0.90;0.90;;;;;;;34.08;43.58;100857.47;5012669;28;20034;-64
2022/06/18 10:29:18;;;;;;;1.50;0.90;;;;;;;34.22;43.81;100858.47;5012994;28;20421;-64
2022/06/18 10:31:49;;;;;;;1.00;0.90;;;;;;;34.28;43.86;100862.75;5012454;28;20502;-62
2022/06/18 10:34:46;;;;;;;2.08;0.70;;;;;;;34.31;43.27;100864.53;5011740;28;20045;-64
2022/06/18 10:37:19;;;;;;;1.60;1.00;;;;;;;34.44;42.14;100881.50;5008647;28;20049;-62
2022/06/18 10:40:03;;;;;;;1.27;1.17;;;;;;;34.51;41.15;100883.78;5000968;28;20041;-64
2022/06/18 10:42:29;;;;;;;4.57;1.25;;;;;;;34.48;41.88;100884.06;5010890;28;20482;-63
2022/06/18 10:45:06;;;;;;;0.65;0.65;;;;;;;34.57;41.24;100881.00;5012105;28;20109;-64
2022/06/18 10:47:34;;;;;;;1.15;0.93;;;;;;;34.43;41.62;100887.63;5004615;28;20045;-63
2022/06/18 10:50:04;;;;;;;1.05;0.95;;;;;;;34.40;41.70;100878.22;5008119;28;20389;-63
2022/06/18 10:52:30;;;;;;;2.88;1.00;;;;;;;34.40;41.40;100872.63;5011186;28;20033;-62
2022/06/18 10:55:20;;;;;;;1.85;0.85;;;;;;;34.46;41.11;100881.00;5010948;28;20030;-63
2022/06/18 10:57:48;;;;;;;1.30;0.85;;;;;;;34.41;40.65;100874.16;5009610;28;20033;-63
2022/06/18 11:00:25;;;;;;;1.45;0.73;;;;;;;34.59;40.26;100877.69;5010410;28;20033;-64
2022/06/18 11:02:54;;;;;;;0.90;0.75;;;;;;;34.46;41.70;100884.59;5010012;28;20554;-63
2022/06/18 11:05:34;;;;;;;1.83;1.27;;;;;;;34.49;41.24;100875.19;5011909;28;20095;-63
2022/06/18 11:08:17;;;;;;;1.40;0.90;;;;;;;34.57;41.78;100883.78;5000859;28;20034;-62
2022/06/18 11:10:56;;;;;;;2.83;0.80;;;;;;;34.67;40.75;100885.00;5007087;28;20037;-64
2022/06/18 11:13:35;;;;;;;0.57;0.57;;;;;;;34.68;40.26;100874.56;5006148;28;20037;-63
2022/06/18 11:16:16;;;;;;;0.95;0.65;;;;;;;34.60;41.14;100868.75;5000545;28;20245;-63
2022/06/18 11:18:55;;;;;;;4.03;0.60;;;;;;;34.73;41.48;100876.59;5008893;28;20037;-63
2022/06/18 11:21:23;;;;;;;0.50;0.50;;;;;;;34.66;41.39;100877.88;5010261;28;20032;-63
2022/06/18 11:23:57;;;;;;;0.95;0.82;;;;;;;34.68;41.29;100880.94;5007158;28;20021;-64
2022/06/18 11:26:25;;;;;;;0.50;0.50;;;;;;;34.67;41.43;100873.06;5007310;28;20549;-64
2022/06/18 11:28:54;;;;;;;1.13;0.63;;;;;;;34.73;41.52;100874.53;5006689;28;20017;-64
2022/06/18 11:31:24;;;;;;;3.67;1.23;;;;;;;34.75;42.50;100868.44;5009797;28;20125;-63
2022/06/18 11:34:05;;;;;;;0.60;0.60;;;;;;;34.64;42.75;100868.47;5009420;28;20113;-64
2022/06/18 11:36:47;;;;;;;0.93;0.65;;;;;;;34.61;42.92;100875.88;5009080;28;20069;-63
2022/06/18 11:39:37;;;;;;;0.50;0.50;;;;;;;34.86;41.38;100883.16;5008589;28;20513;-62
2022/06/18 11:42:10;;;;;;;0.40;0.40;;;;;;;34.89;42.47;100884.13;5004413;28;20038;-63
2022/06/18 11:44:46;;;;;;;0.35;0.35;;;;;;;34.73;41.87;100885.75;5008856;28;20124;-63
2022/06/18 11:47:26;;;;;;;0.30;0.30;;;;;;;34.81;41.59;100892.31;5009073;28;20886;-63
2022/06/18 11:50:23;;;;;;;0.57;0.47;;;;;;;34.41;42.68;100890.94;5005947;28;20052;-64
2022/06/18 11:53:08;;;;;;;0.45;0.45;;;;;;;34.76;41.56;100886.75;5007180;28;20104;-63
2022/06/18 11:55:43;;;;;;;0.70;0.50;;;;;;;34.72;41.14;100873.03;5007578;28;20041;-63
2022/06/18 11:58:20;;;;;;;0.70;0.65;;;;;;;34.76;41.66;100884.72;5004391;28;20100;-63
2022/06/18 12:00:59;;;;;;;0.50;0.47;;;;;;;34.64;42.28;100872.03;5003903;28;20506;-63